Portada
METAR-TAF:

METAR-TAF

Aeroports :

Harbin, Xina

latitud: 45-45N, longitud: 126-46E, altitud: 143 m

Observació

L'informe es va fer fa 32 minuts, a les 12:00 UTC
Vent 4 kt del Nord-Est
Temperatura 18°C
Humitat 77%
Pressió 1008 hPa
Visibilitat 10 km o més
sense núvols per sota de 1500 mi sense presència de cumulonimbus.

METAR: ZYHB 211200Z 04002MPS CAVOK 18/14 Q1008 NOSIG

Hora: 20:32 (12:32 UTC)

Pronòstic

L'informe es va fer fa 3 hores i 29 minuts, a les 09:03 UTC
Pronòstic vàlid del 21 a les 12 UTC al 22 a les 12 UTC
Vent 8 kt del Est
Visibilitat: 6000 m
Escasses núvols a una alçada de 3000 ft

TAF: ZYHB 210903Z 2112/2212 08004MPS 6000 FEW030 TX26/2206Z TN14/2121Z

Observacions i pronòstics meteorològics de més de 4000 aeroports (METAR i TAF).

Les estacions disponibles són els punts grocs i vermells al mapa.

Posi el ratolí al punt desitjat per veure el nom de l'estació.

Feu clic per veure les observacions i els pronòstics meteorològics.

Per canviar el mapa: feu clic els botons verds amb una creu de color negre per apropar; al botó verd amb un guió per allunyar la imatge; o en les fletxes verdes per a mapes adjacents.


METAR-TAF: